Barinas, Venezuela
Current Conditions -  °F | °C
As of 5:00 AM on Friday 31 Oct 2014 (Local Time) from SVBI Reporting Station
Few Clouds Few Clouds  
Wind Chill: 77°   Ceiling: Unl
Heat Index: 78°   Visibility: 6mi
Dew Point: 73°   Wind: 1mph
Humidity: 89%   Direction: 20°NNE
Pressure: 29.83"   Gusts: NA
Location:  8.6°N, 70.25°W
Report Text: SVBI 310900Z 02001KT 9999 FEW017 25/23 Q1010
Loading
Personal Weather Stations






























Interactive Weather Map
Tropical Storm Tracking
New forecast layout! Learn more

10-Day Weather Forecast

Advertisements
Track Severe Weather on mobile